createdAt,value
2018-06-19T00:02:22.000Z,16.30
2018-06-19T00:04:56.513Z,16.30
2018-06-19T00:07:53.462Z,16.30
2018-06-19T00:10:28.160Z,16.30
2018-06-19T00:13:03.255Z,16.20
2018-06-19T00:15:43.322Z,16.20
2018-06-19T00:18:23.313Z,16.20
2018-06-19T00:21:04.465Z,16.10
2018-06-19T00:23:38.796Z,16.10
2018-06-19T00:26:13.099Z,16.00
2018-06-19T00:28:48.058Z,16.00
2018-06-19T00:31:22.448Z,16.00
2018-06-19T00:33:56.822Z,16.00
2018-06-19T00:36:32.104Z,16.00
2018-06-19T00:39:08.984Z,16.10
2018-06-19T00:41:43.301Z,16.10
2018-06-19T00:44:17.956Z,16.10
2018-06-19T00:46:53.076Z,16.10
2018-06-19T00:49:28.200Z,16.10
2018-06-19T00:52:02.421Z,16.00
2018-06-19T00:54:36.626Z,16.00
2018-06-19T00:57:13.984Z,16.00
2018-06-19T00:59:48.894Z,15.90
2018-06-19T01:02:23.932Z,15.90
2018-06-19T01:04:58.298Z,15.80
2018-06-19T01:07:33.388Z,15.80
2018-06-19T01:10:07.617Z,15.80
2018-06-19T01:12:41.993Z,15.80
2018-06-19T01:15:16.345Z,15.70
2018-06-19T01:17:51.480Z,15.70
2018-06-19T01:20:25.904Z,15.60
2018-06-19T01:23:00.213Z,15.60
2018-06-19T01:25:34.544Z,15.50
2018-06-19T01:28:09.054Z,15.40
2018-06-19T01:30:43.384Z,15.40
2018-06-19T01:33:18.562Z,15.30
2018-06-19T01:35:53.028Z,15.30
2018-06-19T01:38:27.457Z,15.30
2018-06-19T01:41:01.778Z,15.30
2018-06-19T01:43:36.076Z,15.30
2018-06-19T01:46:10.368Z,15.30
2018-06-19T01:48:44.712Z,15.30
2018-06-19T01:51:18.946Z,15.30
2018-06-19T01:53:53.113Z,15.20
2018-06-19T01:56:27.748Z,15.20
2018-06-19T01:59:02.058Z,15.20
2018-06-19T02:01:36.284Z,15.10
2018-06-19T02:04:10.524Z,15.10
2018-06-19T02:06:45.017Z,15.10
2018-06-19T02:09:19.295Z,15.10
2018-06-19T02:11:53.657Z,15.10
2018-06-19T02:14:28.108Z,15.00
2018-06-19T02:17:02.420Z,15.00
2018-06-19T02:19:36.667Z,15.00
2018-06-19T02:22:11.069Z,15.00
2018-06-19T02:24:45.366Z,15.00
2018-06-19T02:27:20.610Z,15.00
2018-06-19T02:29:54.839Z,15.00
2018-06-19T02:35:03.336Z,14.90
2018-06-19T02:37:37.687Z,14.90
2018-06-19T02:40:11.957Z,14.80
2018-06-19T02:42:46.299Z,14.70
2018-06-19T02:45:20.541Z,14.70
2018-06-19T02:47:54.896Z,14.70
2018-06-19T02:50:29.816Z,14.70
2018-06-19T02:53:04.337Z,14.70
2018-06-19T02:55:38.658Z,14.70
2018-06-19T02:58:12.931Z,14.70
2018-06-19T03:00:47.170Z,14.70
2018-06-19T03:03:22.039Z,14.60
2018-06-19T03:05:56.544Z,14.60
2018-06-19T03:08:30.762Z,14.60
2018-06-19T03:11:05.181Z,14.70
2018-06-19T03:13:39.692Z,14.70
2018-06-19T03:16:14.242Z,14.70
2018-06-19T03:18:48.577Z,14.80
2018-06-19T03:21:22.912Z,14.90
2018-06-19T03:23:57.320Z,14.90
2018-06-19T03:26:32.669Z,15.00
2018-06-19T03:29:06.908Z,15.00
2018-06-19T03:31:41.286Z,15.10
2018-06-19T03:34:16.828Z,15.10
2018-06-19T03:36:51.245Z,15.20
2018-06-19T03:39:27.085Z,15.20
2018-06-19T03:42:02.645Z,15.30
2018-06-19T03:44:36.937Z,15.30
2018-06-19T03:47:12.107Z,15.30
2018-06-19T03:49:48.189Z,15.40
2018-06-19T03:52:22.536Z,15.40
2018-06-19T03:54:56.900Z,15.50
2018-06-19T03:57:31.932Z,15.50
2018-06-19T04:00:06.337Z,15.50
2018-06-19T04:02:42.060Z,15.50
2018-06-19T04:05:17.868Z,15.60
2018-06-19T04:07:52.234Z,15.60
2018-06-19T04:10:27.703Z,15.70
2018-06-19T04:13:02.171Z,15.70
2018-06-19T04:15:37.090Z,15.80
2018-06-19T04:18:11.380Z,15.80
2018-06-19T04:20:46.623Z,15.90
2018-06-19T04:25:55.506Z,16.00
2018-06-19T04:28:30.025Z,16.00
2018-06-19T04:31:04.685Z,16.00
2018-06-19T04:33:39.026Z,16.10
2018-06-19T04:36:13.429Z,16.20
2018-06-19T04:38:47.956Z,16.20
2018-06-19T04:41:22.364Z,16.20
2018-06-19T04:43:56.777Z,16.30
2018-06-19T04:46:31.180Z,16.30
2018-06-19T04:49:05.877Z,16.30
2018-06-19T04:51:41.107Z,16.40
2018-06-19T04:54:15.482Z,16.40
2018-06-19T04:56:50.351Z,16.40
2018-06-19T04:59:24.794Z,16.40
2018-06-19T05:01:58.989Z,16.50
2018-06-19T05:04:33.375Z,16.50
2018-06-19T05:07:07.968Z,16.60
2018-06-19T05:09:42.311Z,16.60
2018-06-19T05:12:18.852Z,16.70
2018-06-19T05:14:54.783Z,16.70
2018-06-19T05:17:30.030Z,16.70
2018-06-19T05:20:04.436Z,16.70
2018-06-19T05:22:38.857Z,16.80
2018-06-19T05:25:13.093Z,16.80
2018-06-19T05:27:48.316Z,16.80
2018-06-19T05:30:22.585Z,16.70
2018-06-19T05:32:56.940Z,16.70
2018-06-19T05:35:31.084Z,16.80
2018-06-19T05:38:05.335Z,16.80
2018-06-19T05:40:40.164Z,16.80
2018-06-19T05:43:18.841Z,16.90
2018-06-19T05:45:54.128Z,17.00
2018-06-19T05:48:31.568Z,17.10
2018-06-19T05:51:05.896Z,17.20
2018-06-19T05:53:40.208Z,17.30
2018-06-19T05:56:14.422Z,17.40
2018-06-19T05:58:48.706Z,17.50
2018-06-19T06:01:23.517Z,17.60
2018-06-19T06:03:57.956Z,17.60
2018-06-19T06:06:32.301Z,17.60
2018-06-19T06:09:08.567Z,17.60
2018-06-19T06:11:42.740Z,17.60
2018-06-19T06:14:17.060Z,17.70
2018-06-19T06:16:51.481Z,17.70
2018-06-19T06:19:25.946Z,17.80
2018-06-19T06:22:00.261Z,17.80
2018-06-19T06:24:34.629Z,17.80
2018-06-19T06:27:09.688Z,17.80
2018-06-19T06:29:44.038Z,17.90
2018-06-19T06:32:18.637Z,18.00
2018-06-19T06:34:53.362Z,18.10
2018-06-19T06:37:27.784Z,18.00
2018-06-19T06:40:02.388Z,18.00
2018-06-19T06:42:36.572Z,17.90
2018-06-19T06:45:15.016Z,18.00
2018-06-19T06:47:49.347Z,18.10
2018-06-19T06:50:23.787Z,18.20
2018-06-19T06:52:58.088Z,18.30
2018-06-19T06:55:32.400Z,18.50
2018-06-19T06:58:06.740Z,18.60
2018-06-19T07:00:41.149Z,18.60
2018-06-19T07:03:15.659Z,18.50
2018-06-19T07:05:50.080Z,18.50
2018-06-19T07:08:26.460Z,18.60
2018-06-19T07:11:03.952Z,18.70
2018-06-19T07:13:39.703Z,18.70
2018-06-19T07:16:15.674Z,18.90
2018-06-19T07:18:50.668Z,18.80
2018-06-19T07:21:26.914Z,18.90
2018-06-19T07:24:01.902Z,19.00
2018-06-19T07:26:36.433Z,19.30
2018-06-19T07:29:11.556Z,19.20
2018-06-19T07:31:45.863Z,19.30
2018-06-19T07:34:20.592Z,19.20
2018-06-19T07:36:54.999Z,19.30
2018-06-19T07:42:05.702Z,19.30
2018-06-19T07:44:40.819Z,19.30
2018-06-19T07:47:15.305Z,19.50
2018-06-19T07:49:50.069Z,19.50
2018-06-19T07:52:24.515Z,19.80
2018-06-19T07:54:58.974Z,19.80
2018-06-19T07:57:33.143Z,20.00
2018-06-19T08:00:07.648Z,20.20
2018-06-19T08:02:42.081Z,20.20
2018-06-19T08:05:16.395Z,20.30
2018-06-19T08:07:50.600Z,20.40
2018-06-19T08:10:24.944Z,20.40
2018-06-19T08:12:59.315Z,20.40
2018-06-19T08:15:33.777Z,20.00
2018-06-19T08:18:08.946Z,20.10
2018-06-19T08:20:43.237Z,20.20
2018-06-19T08:23:17.674Z,20.20
2018-06-19T08:25:52.219Z,20.20
2018-06-19T08:31:00.660Z,20.50
2018-06-19T08:33:34.922Z,20.30
2018-06-19T08:36:09.279Z,20.30
2018-06-19T08:38:43.491Z,20.60
2018-06-19T08:41:17.756Z,20.60
2018-06-19T08:43:53.074Z,20.60
2018-06-19T08:46:28.356Z,20.40
2018-06-19T08:49:02.724Z,20.40
2018-06-19T08:51:37.633Z,20.30
2018-06-19T08:54:11.877Z,20.20
2018-06-19T08:56:47.933Z,20.30
2018-06-19T08:59:22.757Z,20.80
2018-06-19T09:01:58.007Z,21.10
2018-06-19T09:04:34.363Z,21.30
2018-06-19T09:07:12.002Z,21.30
2018-06-19T09:09:47.502Z,21.20
2018-06-19T09:12:21.830Z,21.20
2018-06-19T09:14:56.193Z,21.10
2018-06-19T09:17:30.619Z,20.90
2018-06-19T09:20:06.018Z,21.30
2018-06-19T09:22:40.245Z,21.80
2018-06-19T09:25:16.042Z,21.80
2018-06-19T09:27:53.138Z,22.00
2018-06-19T09:30:28.069Z,22.00
2018-06-19T09:33:02.288Z,22.10
2018-06-19T09:35:37.560Z,21.90
2018-06-19T09:38:13.916Z,22.10
2018-06-19T09:40:49.154Z,21.90
2018-06-19T09:43:24.712Z,21.50
2018-06-19T09:45:59.606Z,21.50
2018-06-19T09:48:34.030Z,21.30
2018-06-19T09:51:11.049Z,21.30
2018-06-19T09:53:46.444Z,21.40
2018-06-19T09:56:20.794Z,21.30
2018-06-19T09:58:56.906Z,21.30
2018-06-19T10:01:31.478Z,21.40
2018-06-19T10:04:05.669Z,21.40
2018-06-19T10:06:40.192Z,21.50
2018-06-19T10:09:14.343Z,21.20
2018-06-19T10:11:48.841Z,20.60
2018-06-19T10:14:23.160Z,20.60
2018-06-19T10:16:58.973Z,20.40
2018-06-19T10:19:33.200Z,20.30
2018-06-19T10:24:47.324Z,20.00
2018-06-19T10:27:22.195Z,19.80
2018-06-19T10:29:58.713Z,19.70
2018-06-19T10:32:33.299Z,19.50
2018-06-19T10:35:07.739Z,19.50
2018-06-19T10:37:41.960Z,19.60
2018-06-19T10:40:16.297Z,19.60
2018-06-19T10:42:50.612Z,19.40
2018-06-19T10:45:25.093Z,19.70
2018-06-19T10:47:59.366Z,19.90
2018-06-19T10:50:33.764Z,20.20
2018-06-19T10:53:09.618Z,20.50
2018-06-19T10:55:43.912Z,21.00
2018-06-19T10:58:19.268Z,20.60
2018-06-19T11:00:53.695Z,20.40
2018-06-19T11:03:28.886Z,20.30
2018-06-19T11:06:03.148Z,20.20
2018-06-19T11:11:13.399Z,20.30
2018-06-19T11:13:47.717Z,20.30
2018-06-19T11:16:24.246Z,20.60
2018-06-19T11:18:58.593Z,20.70
2018-06-19T11:21:33.255Z,20.60
2018-06-19T11:24:07.722Z,20.30
2018-06-19T11:26:45.027Z,20.10
2018-06-19T11:29:20.517Z,20.20
2018-06-19T11:31:56.685Z,20.30
2018-06-19T11:34:31.492Z,20.10
2018-06-19T11:37:05.713Z,20.20
2018-06-19T11:39:40.964Z,20.40
2018-06-19T11:42:15.346Z,20.50
2018-06-19T11:44:50.504Z,20.80
2018-06-19T11:47:26.043Z,20.70
2018-06-19T11:50:00.321Z,21.10
2018-06-19T11:52:34.616Z,21.10
2018-06-19T11:55:08.820Z,21.00
2018-06-19T11:57:42.989Z,21.30
2018-06-19T12:00:17.340Z,21.60
2018-06-19T12:02:51.550Z,21.30
2018-06-19T12:05:25.799Z,21.20
2018-06-19T12:08:00.395Z,20.80
2018-06-19T12:10:34.758Z,20.70
2018-06-19T12:13:09.986Z,20.60
2018-06-19T12:15:45.116Z,20.50
2018-06-19T12:21:23.166Z,20.40
2018-06-19T12:23:57.834Z,20.50
2018-06-19T12:26:33.443Z,20.60
2018-06-19T12:29:14.215Z,20.70
2018-06-19T12:31:54.285Z,21.00
2018-06-19T12:34:31.344Z,21.10
2018-06-19T12:37:07.066Z,21.60
2018-06-19T12:39:41.399Z,21.80
2018-06-19T12:42:16.164Z,22.20
2018-06-19T12:44:52.847Z,22.40
2018-06-19T12:47:27.164Z,22.40
2018-06-19T12:50:43.585Z,22.40
2018-06-19T12:53:29.859Z,22.90
2018-06-19T12:56:14.211Z,23.00
2018-06-19T12:58:49.260Z,22.70
2018-06-19T13:01:23.669Z,22.40
2018-06-19T13:04:09.472Z,22.40
2018-06-19T13:06:43.847Z,22.90
2018-06-19T13:09:18.114Z,23.60
2018-06-19T13:11:52.305Z,23.50
2018-06-19T13:14:39.936Z,22.80
2018-06-19T13:17:25.931Z,22.80
2018-06-19T13:20:11.777Z,23.70
2018-06-19T13:22:46.048Z,24.10
2018-06-19T13:25:20.272Z,24.10
2018-06-19T13:27:54.693Z,25.00
2018-06-19T13:30:40.348Z,25.40
2018-06-19T13:33:14.586Z,25.80
2018-06-19T13:35:48.891Z,27.30
2018-06-19T13:38:23.628Z,26.70
2018-06-19T13:41:15.131Z,26.40
2018-06-19T13:44:02.193Z,25.80
2018-06-19T13:46:39.557Z,25.10
2018-06-19T13:49:13.968Z,24.00
2018-06-19T13:51:48.285Z,23.60
2018-06-19T13:54:22.612Z,23.70
2018-06-19T13:57:17.297Z,24.00
2018-06-19T13:59:53.090Z,24.30
2018-06-19T14:02:27.642Z,24.00
2018-06-19T14:05:09.614Z,24.00
2018-06-19T14:07:56.906Z,23.40
2018-06-19T14:11:44.716Z,22.90
2018-06-19T14:14:19.299Z,22.70
2018-06-19T14:16:53.768Z,22.30
2018-06-19T14:19:29.109Z,22.10
2018-06-19T14:24:39.077Z,22.30
2018-06-19T14:27:13.703Z,22.10
2018-06-19T14:29:48.848Z,21.90
2018-06-19T14:32:23.959Z,21.90
2018-06-19T14:34:58.392Z,21.80
2018-06-19T14:37:33.906Z,21.80
2018-06-19T14:40:08.262Z,22.10
2018-06-19T14:42:43.857Z,22.10
2018-06-19T14:45:18.408Z,22.30
2018-06-19T14:47:53.946Z,22.40
2018-06-19T14:50:29.045Z,22.80
2018-06-19T14:53:03.268Z,22.70
2018-06-19T14:55:37.750Z,23.00
2018-06-19T14:58:12.957Z,22.90
2018-06-19T15:00:47.345Z,23.20
2018-06-19T15:03:22.380Z,23.20
2018-06-19T15:05:57.149Z,22.70
2018-06-19T15:08:31.727Z,22.70
2018-06-19T15:11:06.417Z,22.90
2018-06-19T15:13:41.504Z,23.00
2018-06-19T15:16:16.229Z,22.90
2018-06-19T15:18:50.747Z,22.90
2018-06-19T15:21:25.063Z,23.00
2018-06-19T15:24:01.345Z,23.10
2018-06-19T15:26:36.163Z,23.20
2018-06-19T15:29:10.470Z,23.20
2018-06-19T15:31:44.785Z,23.30
2018-06-19T15:34:19.320Z,23.40
2018-06-19T15:36:54.358Z,23.40
2018-06-19T15:39:28.661Z,23.20
2018-06-19T15:42:03.232Z,23.10
2018-06-19T15:44:37.741Z,23.20
2018-06-19T15:47:12.400Z,23.10
2018-06-19T15:49:47.485Z,22.90
2018-06-19T15:52:22.448Z,22.70
2018-06-19T15:54:58.160Z,22.60
2018-06-19T16:00:07.841Z,23.00
2018-06-19T16:02:48.063Z,23.30
2018-06-19T16:05:23.544Z,23.10
2018-06-19T16:08:28.712Z,23.20
2018-06-19T16:11:04.255Z,23.40
2018-06-19T16:13:39.930Z,23.40
2018-06-19T16:16:14.419Z,23.80
2018-06-19T16:18:49.146Z,23.60
2018-06-19T16:21:24.122Z,23.20
2018-06-19T16:23:59.386Z,23.00
2018-06-19T16:26:34.081Z,22.80
2018-06-19T16:29:08.936Z,22.90
2018-06-19T16:31:43.415Z,22.90
2018-06-19T16:34:19.142Z,22.80
2018-06-19T16:36:53.448Z,22.80
2018-06-19T16:39:27.922Z,22.90
2018-06-19T16:42:02.369Z,23.00
2018-06-19T16:44:36.708Z,22.90
2018-06-19T16:47:11.056Z,22.60
2018-06-19T16:49:45.280Z,22.40
2018-06-19T16:52:19.444Z,22.40
2018-06-19T16:54:53.796Z,22.30
2018-06-19T16:57:28.305Z,22.50
2018-06-19T17:00:03.356Z,22.40
2018-06-19T17:02:38.623Z,22.10
2018-06-19T17:05:14.374Z,22.20
2018-06-19T17:07:54.287Z,22.30
2018-06-19T17:10:32.171Z,22.30
2018-06-19T17:13:07.772Z,22.10
2018-06-19T17:15:43.429Z,21.90
2018-06-19T17:18:19.852Z,21.80
2018-06-19T17:20:56.709Z,21.90
2018-06-19T17:23:35.492Z,21.90
2018-06-19T17:26:11.002Z,21.90
2018-06-19T17:28:45.875Z,21.90
2018-06-19T17:31:20.577Z,22.40
2018-06-19T17:33:56.171Z,22.40
2018-06-19T17:36:30.877Z,22.30
2018-06-19T17:39:07.918Z,22.50
2018-06-19T17:41:42.227Z,23.20
2018-06-19T17:44:17.513Z,23.30
2018-06-19T17:46:57.578Z,23.20
2018-06-19T17:49:38.432Z,23.10
2018-06-19T17:52:14.451Z,22.80
2018-06-19T17:54:49.017Z,22.50
2018-06-19T17:57:26.536Z,22.10
2018-06-19T18:00:01.200Z,21.90
2018-06-19T18:02:41.182Z,21.90
2018-06-19T18:08:13.632Z,21.60
2018-06-19T18:10:57.713Z,21.40
2018-06-19T18:13:39.899Z,21.40
2018-06-19T18:19:13.294Z,21.20
2018-06-19T18:27:31.096Z,20.80
2018-06-19T18:30:08.149Z,20.50
2018-06-19T18:32:48.391Z,20.30
2018-06-19T18:35:23.547Z,20.10
2018-06-19T18:37:59.783Z,20.10
2018-06-19T18:40:38.521Z,19.90
2018-06-19T18:43:16.821Z,19.90
2018-06-19T18:45:53.189Z,19.80
2018-06-19T18:48:28.129Z,19.90
2018-06-19T18:51:04.814Z,19.80
2018-06-19T18:53:39.323Z,19.80
2018-06-19T18:56:14.474Z,19.80
2018-06-19T18:58:49.506Z,19.80
2018-06-19T19:01:24.005Z,19.80
2018-06-19T19:03:58.381Z,19.80
2018-06-19T19:06:33.486Z,19.80
2018-06-19T19:09:09.512Z,19.80
2018-06-19T19:11:45.123Z,19.70
2018-06-19T19:14:20.013Z,19.60
2018-06-19T19:16:59.953Z,19.60
2018-06-19T19:19:34.232Z,19.50
2018-06-19T19:22:08.801Z,19.50
2018-06-19T19:24:43.862Z,19.40
2018-06-19T19:27:23.605Z,19.40
2018-06-19T19:29:57.822Z,19.40
2018-06-19T19:32:32.372Z,19.30
2018-06-19T19:35:06.801Z,19.30
2018-06-19T19:37:46.641Z,19.30
2018-06-19T19:40:20.788Z,19.30
2018-06-19T19:42:55.093Z,19.30
2018-06-19T19:45:30.670Z,19.30
2018-06-19T19:49:13.756Z,19.20
2018-06-19T19:51:48.689Z,19.20
2018-06-19T19:54:23.078Z,19.20
2018-06-19T19:57:03.372Z,19.20
2018-06-19T19:59:38.036Z,19.20
2018-06-19T20:02:12.578Z,19.20
2018-06-19T20:04:46.972Z,19.20
2018-06-19T20:07:22.487Z,19.20
2018-06-19T20:09:56.829Z,19.20
2018-06-19T20:12:31.023Z,19.20
2018-06-19T20:15:05.141Z,19.20
2018-06-19T20:17:39.663Z,19.20
2018-06-19T20:20:15.459Z,19.20
2018-06-19T20:22:49.783Z,19.20
2018-06-19T20:25:23.912Z,19.10
2018-06-19T20:27:58.721Z,19.10
2018-06-19T20:30:33.644Z,19.10
2018-06-19T20:33:07.975Z,19.20
2018-06-19T20:35:42.183Z,19.20
2018-06-19T20:38:16.568Z,19.20
2018-06-19T20:40:50.744Z,19.20
2018-06-19T20:43:25.072Z,19.10
2018-06-19T20:46:03.934Z,19.10
2018-06-19T20:48:38.636Z,19.10
2018-06-19T20:51:13.241Z,19.10
2018-06-19T20:53:48.437Z,19.10
2018-06-19T20:56:24.124Z,19.10
2018-06-19T20:59:01.016Z,19.10
2018-06-19T21:01:36.231Z,19.10
2018-06-19T21:04:12.109Z,19.00
2018-06-19T21:06:48.225Z,19.00
2018-06-19T21:09:22.554Z,19.00
2018-06-19T21:11:57.508Z,19.00
2018-06-19T21:14:35.873Z,19.10
2018-06-19T21:17:11.792Z,19.00
2018-06-19T21:19:49.062Z,19.10
2018-06-19T21:22:25.102Z,19.00
2018-06-19T21:25:01.934Z,19.00
2018-06-19T21:27:39.654Z,19.00
2018-06-19T21:30:15.229Z,19.00
2018-06-19T21:32:57.051Z,19.00
2018-06-19T21:35:33.622Z,19.00
2018-06-19T21:38:11.213Z,18.90
2018-06-19T21:40:50.345Z,19.00
2018-06-19T21:43:32.605Z,19.00
2018-06-19T21:46:12.836Z,19.00
2018-06-19T21:51:31.332Z,19.00
2018-06-19T21:54:07.312Z,18.90
2018-06-19T21:56:44.631Z,19.00
2018-06-19T21:59:28.565Z,18.90
2018-06-19T22:02:08.925Z,19.00
2018-06-19T22:04:50.485Z,18.90
2018-06-19T22:07:25.819Z,18.90
2018-06-19T22:10:04.748Z,18.90
2018-06-19T22:12:53.488Z,18.90
2018-06-19T22:15:28.568Z,19.00
2018-06-19T22:20:41.835Z,18.90
2018-06-19T22:23:17.052Z,18.90
2018-06-19T22:25:54.071Z,18.90
2018-06-19T22:28:35.492Z,18.90
2018-06-19T22:31:10.795Z,18.90
2018-06-19T22:33:49.556Z,18.80
2018-06-19T22:36:25.501Z,18.90
2018-06-19T22:39:01.988Z,18.80
2018-06-19T22:41:46.979Z,18.90
2018-06-19T22:47:11.768Z,18.80
2018-06-19T22:49:55.049Z,18.80
2018-06-19T22:52:40.064Z,18.80
2018-06-19T22:55:16.537Z,18.80
2018-06-19T22:57:53.623Z,18.80
2018-06-19T23:00:38.302Z,18.80
2018-06-19T23:03:19.460Z,18.80
2018-06-19T23:05:58.694Z,18.80
2018-06-19T23:08:41.118Z,18.80
2018-06-19T23:11:19.924Z,18.80
2018-06-19T23:13:56.086Z,18.80
2018-06-19T23:16:38.712Z,18.80
2018-06-19T23:19:16.398Z,18.80
2018-06-19T23:21:55.426Z,18.70
2018-06-19T23:24:35.398Z,18.80
2018-06-19T23:27:18.129Z,18.80
2018-06-19T23:29:57.572Z,18.80
2018-06-19T23:32:34.825Z,18.80
2018-06-19T23:35:10.700Z,18.80
2018-06-19T23:37:51.704Z,18.80
2018-06-19T23:40:28.185Z,18.70
2018-06-19T23:43:11.087Z,18.70
2018-06-19T23:45:53.997Z,18.80
2018-06-19T23:48:28.234Z,18.80
2018-06-19T23:51:08.174Z,18.80
2018-06-19T23:53:44.692Z,18.70
2018-06-19T23:56:25.878Z,18.70
2018-06-19T23:59:06.628Z,18.70
